Terminal Aerodrome Forecast
Issued by NWS Goodland, KS

Home | Current Version | Previous Version | Text Only | Print | Product List | Glossary On
Versions: 1 2 3 4 5 6 7 8 9 10 11 12 13 14 15 16 17
000
FTUS43 KGLD 071720
TAFGLD
TAF
KGLD 071720Z 0718/0818 12010KT 6SM HZ FU SCT200
     FM072100 13014G21KT P6SM FEW120 BKN200
     FM080200 14010KT P6SM SCT120
     FM081100 16008KT P6SM VCSH SCT090 BKN150=

USA.gov is the U.S. government's official web portal to all federal, state and local government web resources and services.